Time;durP1;ratioP1;P1;durP2;ratioP2;P2;SDS_P1;SDS_P2;PMS_P1;PMS_P2;Temp;Humidity;BMP_temperature;BMP_pressure;BME280_temperature;BME280_humidity;BME280_pressure;Samples;Min_cycle;Max_cycle;Signal;HPM_P1;HPM_P2
2022/05/02 00:00:30;;;;;;;9.57;5.93;;;17.10;70.70;;;;;;10905354;32;20038;-73
2022/05/02 00:06:39;;;;;;;8.15;6.20;;;17.20;70.60;;;;;;10904848;32;20026;-73
2022/05/02 00:12:42;;;;;;;6.70;5.00;;;17.10;70.50;;;;;;10904698;32;20356;-73
2022/05/02 00:18:44;;;;;;;6.07;4.57;;;17.10;70.40;;;;;;10904358;32;20032;-73
2022/05/02 00:24:46;;;;;;;7.18;5.25;;;17.10;70.40;;;;;;10904553;32;20285;-73
2022/05/02 00:30:49;;;;;;;5.72;4.32;;;17.00;70.50;;;;;;10890914;32;20031;-73
2022/05/02 00:36:51;;;;;;;6.10;4.68;;;17.00;70.60;;;;;;10904907;32;20343;-73
2022/05/02 00:42:53;;;;;;;6.20;4.70;;;17.00;70.60;;;;;;10904121;32;20053;-73
2022/05/02 00:48:57;;;;;;;8.27;5.00;;;17.00;70.60;;;;;;10904148;32;20055;-73
2022/05/02 00:55:01;;;;;;;6.57;4.75;;;16.90;70.50;;;;;;10906469;32;20328;-73
2022/05/02 01:01:05;;;;;;;6.97;4.68;;;16.80;70.70;;;;;;10897732;32;20019;-73
2022/05/02 01:07:10;;;;;;;7.07;4.80;;;16.80;71.10;;;;;;10911052;32;20343;-73
2022/05/02 01:13:34;;;;;;;9.40;4.87;;;16.90;71.40;;;;;;10417840;32;34058834;-73
2022/05/02 01:20:21;;;;;;;11.50;7.00;;;17.00;71.30;;;;;;10945351;32;20104;-73
2022/05/02 01:26:24;;;;;;;6.50;5.30;;;16.90;71.10;;;;;;10948184;32;20343;-73
2022/05/02 01:32:26;;;;;;;6.60;4.28;;;16.90;71.10;;;;;;10947744;32;20054;-73
2022/05/02 01:38:31;;;;;;;8.43;4.80;;;16.80;71.20;;;;;;10934251;32;20403;-73
2022/05/02 01:44:34;;;;;;;7.45;5.07;;;16.70;71.30;;;;;;10947044;32;20023;-73
2022/05/02 01:50:37;;;;;;;6.78;4.70;;;16.70;71.40;;;;;;10933487;32;20468;-73
2022/05/02 01:56:39;;;;;;;9.77;6.60;;;16.70;71.80;;;;;;10933258;32;20027;-73
2022/05/02 02:02:41;;;;;;;6.85;4.95;;;16.80;71.90;;;;;;10946574;32;20388;-73
2022/05/02 02:08:44;;;;;;;7.12;5.50;;;16.70;71.80;;;;;;10946296;32;20049;-73
2022/05/02 02:14:48;;;;;;;7.03;5.18;;;16.70;72.10;;;;;;10945265;32;20068;-73
2022/05/02 02:20:55;;;;;;;6.20;4.83;;;16.70;72.20;;;;;;10933175;32;20381;-73
2022/05/02 02:26:58;;;;;;;5.87;4.10;;;16.70;71.90;;;;;;10945889;32;20019;-73
2022/05/02 02:33:01;;;;;;;7.68;5.35;;;16.70;72.00;;;;;;10935971;32;20054;-73
2022/05/02 02:39:04;;;;;;;6.50;5.37;;;16.60;72.20;;;;;;10907848;32;20046;-73
2022/05/02 02:45:10;;;;;;;7.68;4.47;;;16.60;72.20;;;;;;10907849;32;20391;-73
2022/05/02 02:51:14;;;;;;;6.35;4.30;;;16.60;72.00;;;;;;10902785;32;20050;-73
2022/05/02 02:57:17;;;;;;;8.07;5.43;;;16.50;72.00;;;;;;10902986;32;20081;-73
2022/05/02 03:03:20;;;;;;;7.60;5.62;;;16.50;72.30;;;;;;10907080;32;20019;-73
2022/05/02 03:09:22;;;;;;;6.22;4.62;;;16.50;72.50;;;;;;10907011;32;20050;-73
2022/05/02 03:15:24;;;;;;;5.53;3.78;;;16.40;72.40;;;;;;10906470;32;20331;-73
2022/05/02 03:21:26;;;;;;;6.75;4.07;;;16.40;72.30;;;;;;10901904;32;20046;-74
2022/05/02 03:27:29;;;;;;;6.07;4.45;;;16.40;72.30;;;;;;10917751;32;20032;-74
2022/05/02 03:33:31;;;;;;;6.20;4.10;;;16.30;72.30;;;;;;10905690;32;20031;-74
2022/05/02 03:39:33;;;;;;;5.95;4.28;;;16.30;72.40;;;;;;10904543;32;20034;-74
2022/05/02 03:45:36;;;;;;;5.05;4.07;;;16.20;72.40;;;;;;10905391;32;20054;-74
2022/05/02 03:51:38;;;;;;;8.77;5.25;;;16.30;72.50;;;;;;10905167;32;20058;-74
2022/05/02 03:57:40;;;;;;;4.30;3.55;;;16.20;72.70;;;;;;10905003;32;20042;-74
2022/05/02 04:03:42;;;;;;;4.47;3.87;;;16.20;72.80;;;;;;10904868;32;20022;-74
2022/05/02 04:09:44;;;;;;;4.12;3.55;;;16.20;73.10;;;;;;10903607;32;20388;-74
2022/05/02 04:15:47;;;;;;;4.40;3.45;;;16.20;73.30;;;;;;10904511;32;20386;-74
2022/05/02 04:22:42;;;;;;;6.93;4.50;;;16.10;73.20;;;;;;10903633;32;20046;-74
2022/05/02 04:28:44;;;;;;;5.97;4.25;;;16.10;73.20;;;;;;10906516;32;20422;-74
2022/05/02 04:34:46;;;;;;;5.30;3.12;;;16.00;73.40;;;;;;10911127;32;20387;-74
2022/05/02 04:40:49;;;;;;;7.20;4.03;;;16.10;73.20;;;;;;10911842;32;20323;-74
2022/05/02 04:46:51;;;;;;;6.35;4.12;;;16.10;73.10;;;;;;10910610;32;20027;-74
2022/05/02 04:52:54;;;;;;;4.68;3.72;;;16.00;73.20;;;;;;10911100;32;20031;-74
2022/05/02 04:58:57;;;;;;;5.57;4.37;;;16.10;73.30;;;;;;10911324;32;20059;-74
2022/05/02 05:04:59;;;;;;;5.55;3.65;;;16.20;73.10;;;;;;10910993;32;20054;-74
2022/05/02 05:11:23;;;;;;;5.62;3.90;;;16.20;73.00;;;;;;10910765;32;20347;-74
2022/05/02 05:17:40;;;;;;;4.62;3.70;;;16.30;73.00;;;;;;10910495;32;20019;-74
2022/05/02 05:24:06;;;;;;;4.80;3.87;;;16.40;73.00;;;;;;10910151;32;20042;-74
2022/05/02 05:30:10;;;;;;;5.18;3.67;;;16.40;73.10;;;;;;10909811;32;20027;-74
2022/05/02 05:36:21;;;;;;;6.37;4.35;;;16.50;73.10;;;;;;10905557;32;20367;-74
2022/05/02 05:42:32;;;;;;;4.55;2.92;;;16.50;73.30;;;;;;10906260;32;20437;-74
2022/05/02 05:48:47;;;;;;;3.55;2.78;;;16.50;73.20;;;;;;10909172;32;20031;-71
2022/05/02 05:55:23;;;;;;;5.05;4.15;;;16.70;73.10;;;;;;10904558;32;20081;-70
2022/05/02 06:01:44;;;;;;;4.45;3.42;;;16.80;73.00;;;;;;10863832;32;20027;-70
2022/05/02 06:07:47;;;;;;;5.85;3.85;;;16.80;72.80;;;;;;10866683;32;20058;-71
2022/05/02 06:13:53;;;;;;;4.57;3.10;;;16.90;72.90;;;;;;10861603;32;20283;-70
2022/05/02 06:19:59;;;;;;;6.18;4.43;;;17.00;72.60;;;;;;10843224;32;20023;-70
2022/05/02 06:26:03;;;;;;;5.62;4.25;;;17.20;72.30;;;;;;10828981;32;20163;-72
2022/05/02 06:32:10;;;;;;;8.23;4.25;;;17.30;72.20;;;;;;10828688;32;20024;-71
2022/05/02 06:38:36;;;;;;;4.95;3.30;;;17.30;72.00;;;;;;10894718;32;20028;-70
2022/05/02 06:44:50;;;;;;;5.68;3.40;;;17.50;72.00;;;;;;10906017;32;20019;-71
2022/05/02 06:51:06;;;;;;;7.30;3.62;;;17.50;71.50;;;;;;10910421;32;20023;-71
2022/05/02 06:57:19;;;;;;;3.78;3.37;;;17.70;71.50;;;;;;10906592;32;20057;-71
2022/05/02 07:03:41;;;;;;;4.78;3.30;;;17.70;71.20;;;;;;10906036;32;20023;-71
2022/05/02 07:09:47;;;;;;;5.45;3.95;;;17.80;70.70;;;;;;10906059;32;20050;-71
2022/05/02 07:15:55;;;;;;;5.37;3.45;;;17.90;70.20;;;;;;10905921;32;20032;-72
2022/05/02 07:22:08;;;;;;;4.20;3.07;;;17.90;70.10;;;;;;10904771;32;20050;-70
2022/05/02 07:28:30;;;;;;;7.22;3.45;;;18.00;69.90;;;;;;10905393;32;20046;-71
2022/05/02 07:35:02;;;;;;;4.53;3.20;;;18.20;69.50;;;;;;10901059;32;20031;-71
2022/05/02 07:41:26;;;;;;;4.75;3.37;;;18.30;69.00;;;;;;10905156;32;20259;-71
2022/05/02 07:47:33;;;;;;;5.37;3.45;;;18.50;68.70;;;;;;10905120;32;20053;-71
2022/05/02 07:53:40;;;;;;;6.43;4.05;;;18.70;68.30;;;;;;10904528;32;20038;-71
2022/05/02 07:59:44;;;;;;;5.80;3.62;;;18.70;67.90;;;;;;10904097;32;20301;-71
2022/05/02 08:05:53;;;;;;;6.00;4.37;;;18.70;67.40;;;;;;10902820;32;20023;-71
2022/05/02 08:11:58;;;;;;;5.10;3.90;;;18.40;67.20;;;;;;10904008;32;20128;-70
2022/05/02 08:18:31;;;;;;;5.15;3.08;;;18.20;67.60;;;;;;10903376;32;20058;-71
2022/05/02 08:31:34;;;;;;;6.70;3.45;;;18.60;66.90;;;;;;10903964;32;20057;-71
2022/05/02 08:37:56;;;;;;;5.03;3.25;;;18.70;66.10;;;;;;10863469;32;20324;-71
2022/05/02 08:44:22;;;;;;;5.12;2.85;;;18.70;66.40;;;;;;10854067;32;20031;-71
2022/05/02 08:50:36;;;;;;;4.82;3.42;;;18.60;66.40;;;;;;10862198;32;20113;-70
2022/05/02 08:56:59;;;;;;;3.92;2.72;;;18.60;66.40;;;;;;10862357;32;20388;-71
2022/05/02 09:03:19;;;;;;;4.70;2.25;;;18.80;65.60;;;;;;10862067;32;20054;-70
2022/05/02 09:09:40;;;;;;;3.17;1.75;;;19.00;64.80;;;;;;10861776;32;20447;-71
2022/05/02 09:15:57;;;;;;;2.33;1.83;;;19.20;65.00;;;;;;10923639;27;20049;-71
2022/05/02 09:22:19;;;;;;;4.93;2.03;;;19.60;63.90;;;;;;10946815;32;20020;-71
2022/05/02 09:28:23;;;;;;;8.00;3.75;;;19.90;63.00;;;;;;10946693;32;20023;-71
2022/05/02 09:34:36;;;;;;;7.82;2.80;;;20.10;61.20;;;;;;10910113;32;20027;-71
2022/05/02 09:40:41;;;;;;;3.62;2.22;;;20.20;61.00;;;;;;10906444;32;20046;-70
2022/05/02 09:53:49;;;;;;;3.67;2.58;;;19.80;61.10;;;;;;10908526;32;20046;-70
2022/05/02 10:01:06;;;;;;;14.77;2.75;;;19.60;61.90;;;;;;10908658;32;20027;-70
2022/05/02 10:06:53;;;;;;;2.80;2.12;;;19.80;62.30;;;;;;10908204;32;20045;-69
2022/05/02 10:12:59;;;;;;;6.35;3.03;;;20.10;61.20;;;;;;10908057;32;20035;-69
2022/05/02 10:19:16;;;;;;;2.28;2.08;;;20.50;60.40;;;;;;10907770;32;20380;-69
2022/05/02 10:25:52;;;;;;;2.60;1.62;;;20.50;60.90;;;;;;10905498;32;20027;-69
2022/05/02 10:32:26;;;;;;;2.87;1.60;;;20.20;61.00;;;;;;10907413;32;20027;-70
2022/05/02 10:38:30;;;;;;;3.00;1.50;;;20.30;60.20;;;;;;10866626;32;20027;-69
2022/05/02 10:45:08;;;;;;;3.72;2.55;;;20.90;58.70;;;;;;10865394;32;20028;-69
2022/05/02 10:51:26;;;;;;;6.30;2.30;;;21.60;57.10;;;;;;10827503;32;20020;-69
2022/05/02 10:57:53;;;;;;;3.43;2.27;;;21.70;55.80;;;;;;10811226;33;20058;-70
2022/05/02 11:04:31;;;;;;;2.10;1.45;;;21.20;56.90;;;;;;10791620;33;20059;-69
2022/05/02 11:10:46;;;;;;;;;;;21.40;56.80;;;;;;10788397;33;20337;-69
2022/05/02 11:24:55;;;;;;;2.47;1.73;;;22.20;54.40;;;;;;10827298;32;20043;-70
2022/05/02 11:31:17;;;;;;;2.05;1.48;;;22.80;54.50;;;;;;10827290;32;20208;-69
2022/05/02 11:37:51;;;;;;;1.55;1.20;;;22.30;54.80;;;;;;10837614;32;20039;-69
2022/05/02 11:44:13;;;;;;;2.35;1.80;;;22.10;55.70;;;;;;10862125;32;20377;-70
2022/05/02 11:50:23;;;;;;;2.40;1.62;;;21.90;55.00;;;;;;10850650;32;20044;-71
2022/05/02 11:56:53;;;;;;;2.50;1.98;;;22.00;55.30;;;;;;10863091;32;20031;-70
2022/05/02 12:03:07;;;;;;;2.05;1.65;;;22.60;53.40;;;;;;10863030;32;20328;-70
2022/05/02 12:09:22;;;;;;;4.43;2.00;;;23.10;52.00;;;;;;10862850;32;20016;-71
2022/05/02 12:15:25;;;;;;;2.45;1.87;;;23.00;52.40;;;;;;10863453;32;20467;-70
2022/05/02 12:21:40;;;;;;;2.35;1.50;;;22.60;52.60;;;;;;10901871;32;20081;-69
2022/05/02 12:28:17;;;;;;;4.68;1.85;;;22.80;51.90;;;;;;10903149;32;20392;-70
2022/05/02 12:34:21;;;;;;;3.58;1.70;;;23.30;50.80;;;;;;10902606;32;20054;-71
2022/05/02 12:40:24;;;;;;;3.60;1.65;;;23.40;50.00;;;;;;10903726;32;20032;-70
2022/05/02 12:46:39;;;;;;;3.62;2.08;;;23.50;49.50;;;;;;10903662;32;20119;-70
2022/05/02 12:52:46;;;;;;;2.42;1.92;;;23.50;50.20;;;;;;10907808;32;20061;-70
2022/05/02 13:05:17;;;;;;;3.15;2.20;;;23.60;49.10;;;;;;10910866;32;20038;-70
2022/05/02 13:11:21;;;;;;;3.47;1.83;;;23.80;49.00;;;;;;10910381;32;20035;-72
2022/05/02 13:17:34;;;;;;;3.37;2.00;;;23.80;48.90;;;;;;10910100;32;20046;-70
2022/05/02 13:23:47;;;;;;;2.33;1.58;;;24.00;48.60;;;;;;10909911;32;20027;-69
2022/05/02 13:30:00;;;;;;;2.25;1.42;;;24.00;48.10;;;;;;10909261;32;20404;-70
2022/05/02 13:36:52;;;;;;;4.10;2.50;;;23.90;47.80;;;;;;10914903;32;20058;-70
2022/05/02 13:43:04;;;;;;;2.75;1.67;;;23.80;48.00;;;;;;10909967;32;20027;-69
2022/05/02 13:49:37;;;;;;;6.35;1.75;;;23.40;48.90;;;;;;10909138;32;20332;-70
2022/05/02 13:55:43;;;;;;;2.62;1.60;;;23.40;48.80;;;;;;10908884;32;20045;-70
2022/05/02 14:02:39;;;;;;;3.75;1.83;;;23.70;47.90;;;;;;10908189;32;20050;-69
2022/05/02 14:09:01;;;;;;;3.53;2.12;;;23.70;48.00;;;;;;10894382;32;20027;-70
2022/05/02 14:15:07;;;;;;;5.60;3.03;;;23.60;47.80;;;;;;10906802;32;20050;-70
2022/05/02 14:28:53;;;;;;;3.87;2.67;;;23.70;47.80;;;;;;10756816;33;20040;-69
2022/05/02 14:34:55;;;;;;;4.47;3.45;;;23.90;47.80;;;;;;10648601;33;20033;-69
2022/05/02 14:40:59;;;;;;;9.27;4.65;;;23.90;48.80;;;;;;10664535;33;20047;-70
2022/05/02 14:47:02;;;;;;;3.90;2.92;;;23.90;49.20;;;;;;10683339;33;20457;-69
2022/05/02 14:53:09;;;;;;;7.10;2.67;;;24.00;49.50;;;;;;10683686;33;20429;-70
2022/05/02 14:59:26;;;;;;;5.82;2.25;;;24.30;49.00;;;;;;10683365;33;20319;-70
2022/05/02 15:05:31;;;;;;;4.70;2.70;;;24.40;48.80;;;;;;10718759;33;20095;-70
2022/05/02 15:12:04;;;;;;;6.47;3.97;;;24.60;48.10;;;;;;10860751;32;20416;-70
2022/05/02 15:18:18;;;;;;;8.68;3.33;;;24.60;47.70;;;;;;10899030;32;20034;-70
2022/05/02 15:37:42;;;;;;;5.25;3.80;;;23.40;50.10;;;;;;10775541;32;20033;-70
2022/05/02 15:43:51;;;;;;;5.40;3.65;;;23.10;49.50;;;;;;10770129;32;20028;-69
2022/05/02 15:50:19;;;;;;;5.37;3.60;;;22.90;49.70;;;;;;10763687;33;20075;-69
2022/05/02 15:56:22;;;;;;;7.15;3.78;;;22.80;50.30;;;;;;10749225;33;20063;-69
2022/05/02 16:02:24;;;;;;;5.70;3.83;;;22.70;50.40;;;;;;10752968;33;20047;-70
2022/05/02 16:14:49;;;;;;;7.03;3.72;;;22.80;50.60;;;;;;10928214;32;20449;-70
2022/05/02 16:20:52;;;;;;;4.00;3.30;;;23.30;49.80;;;;;;10900171;32;20031;-70
2022/05/02 16:26:58;;;;;;;5.70;3.53;;;23.60;49.10;;;;;;10907400;32;20039;-70
2022/05/02 16:33:08;;;;;;;6.60;3.75;;;23.90;48.80;;;;;;10940913;32;20065;-70
2022/05/02 16:39:12;;;;;;;4.47;3.10;;;24.10;48.50;;;;;;10943759;32;20015;-70
2022/05/02 16:45:14;;;;;;;5.82;3.17;;;24.20;48.70;;;;;;10925105;32;20403;-71
2022/05/02 16:51:21;;;;;;;4.85;2.72;;;24.50;48.50;;;;;;10920016;32;20340;-70
2022/05/02 16:57:32;;;;;;;3.73;2.60;;;24.20;49.00;;;;;;10910935;32;20027;-70
2022/05/02 17:03:34;;;;;;;3.60;2.67;;;24.00;49.40;;;;;;10910632;32;20023;-69
2022/05/02 17:09:37;;;;;;;4.20;2.42;;;23.80;49.80;;;;;;10910100;32;20057;-70
2022/05/02 17:15:42;;;;;;;4.62;3.08;;;23.60;50.20;;;;;;10936288;27;20053;-70
2022/05/02 17:22:02;;;;;;;7.43;3.05;;;23.60;50.50;;;;;;10946940;32;20473;-70
2022/05/02 17:28:12;;;;;;;2.17;1.83;;;24.50;49.40;;;;;;10925848;32;20049;-70
2022/05/02 17:34:18;;;;;;;2.92;2.35;;;24.60;49.10;;;;;;10909644;32;20023;-70
2022/05/02 17:40:21;;;;;;;4.37;2.72;;;24.10;50.00;;;;;;10908530;32;20023;-70
2022/05/02 17:46:37;;;;;;;4.97;3.03;;;23.70;50.90;;;;;;10908276;32;20418;-70
2022/05/02 17:52:40;;;;;;;4.05;3.00;;;23.80;51.20;;;;;;10909120;32;20060;-70
2022/05/02 17:58:42;;;;;;;6.35;4.32;;;24.00;50.70;;;;;;10908775;32;20023;-70
2022/05/02 18:04:53;;;;;;;6.85;5.12;;;23.80;51.00;;;;;;10920249;32;20018;-70
2022/05/02 18:11:04;;;;;;;7.95;6.10;;;23.30;51.90;;;;;;10909956;32;20316;-70
2022/05/02 18:17:46;;;;;;;6.55;3.92;;;22.80;52.60;;;;;;10908098;32;20035;-70
2022/05/02 18:23:58;;;;;;;4.93;3.55;;;22.50;53.20;;;;;;10908027;32;20160;-70
2022/05/02 18:30:03;;;;;;;5.53;3.85;;;22.30;53.60;;;;;;10907946;32;20267;-70
2022/05/02 18:36:22;;;;;;;5.57;3.83;;;22.00;53.90;;;;;;10907489;32;20050;-70
2022/05/02 18:42:26;;;;;;;5.55;4.10;;;21.80;54.40;;;;;;10906306;32;20020;-70
2022/05/02 18:54:58;;;;;;;5.15;3.58;;;21.50;55.40;;;;;;10906419;32;20050;-70
2022/05/02 19:01:06;;;;;;;8.02;4.93;;;21.30;55.50;;;;;;10906576;32;20050;-70
2022/05/02 19:07:17;;;;;;;7.33;5.37;;;21.30;56.00;;;;;;10905723;32;20058;-70
2022/05/02 19:13:24;;;;;;;5.60;3.42;;;21.10;56.40;;;;;;10903079;32;20062;-71
2022/05/02 19:19:28;;;;;;;5.45;3.92;;;21.00;56.90;;;;;;10905660;32;20054;-70
2022/05/02 19:26:01;;;;;;;8.13;4.37;;;20.90;57.50;;;;;;10905601;32;20053;-70
2022/05/02 19:32:09;;;;;;;7.07;4.90;;;20.80;57.40;;;;;;10905463;32;20027;-70
2022/05/02 19:45:01;;;;;;;7.87;4.00;;;20.70;57.60;;;;;;10905136;32;20031;-70
2022/05/02 19:51:04;;;;;;;7.03;4.55;;;20.60;58.00;;;;;;10905093;32;20046;-70
2022/05/02 19:57:12;;;;;;;5.70;4.22;;;20.60;58.30;;;;;;10904669;32;20352;-70
2022/05/02 20:03:14;;;;;;;5.78;3.72;;;20.50;58.80;;;;;;10904337;32;20368;-70
2022/05/02 20:09:17;;;;;;;7.90;4.87;;;20.40;58.70;;;;;;10904471;32;20038;-70
2022/05/02 20:15:20;;;;;;;7.15;4.75;;;20.30;58.80;;;;;;10904245;32;20089;-70
2022/05/02 20:21:23;;;;;;;6.05;4.15;;;20.30;58.90;;;;;;10904345;32;20019;-70
2022/05/02 20:27:38;;;;;;;8.02;5.82;;;20.30;59.20;;;;;;10904158;32;20058;-70
2022/05/02 20:40:11;;;;;;;9.73;4.65;;;20.10;60.40;;;;;;10903958;32;20023;-70
2022/05/02 20:46:16;;;;;;;6.82;4.72;;;20.10;60.60;;;;;;10903765;32;20032;-70
2022/05/02 20:52:31;;;;;;;6.97;5.00;;;20.10;60.60;;;;;;10903668;32;20058;-70
2022/05/02 20:58:34;;;;;;;8.75;5.78;;;20.00;60.50;;;;;;10903662;32;20023;-70
2022/05/02 21:04:39;;;;;;;8.10;4.60;;;20.00;61.00;;;;;;10903450;32;20035;-70
2022/05/02 21:10:48;;;;;;;9.10;5.90;;;19.80;61.30;;;;;;10904069;32;20023;-70
2022/05/02 21:16:57;;;;;;;11.23;7.57;;;19.80;61.80;;;;;;10910199;32;20039;-70
2022/05/02 21:23:40;;;;;;;10.18;5.97;;;19.70;62.30;;;;;;10910193;32;20191;-70
2022/05/02 21:30:07;;;;;;;11.10;8.82;;;19.60;62.30;;;;;;10909905;32;20019;-70
2022/05/02 21:36:10;;;;;;;9.52;6.50;;;19.50;62.90;;;;;;10909592;32;20030;-70
2022/05/02 21:42:13;;;;;;;9.43;5.60;;;19.40;63.10;;;;;;10909566;32;20347;-70
2022/05/02 21:48:15;;;;;;;11.65;7.00;;;19.40;63.50;;;;;;10909269;32;20054;-70
2022/05/02 21:54:17;;;;;;;8.48;6.12;;;19.40;63.80;;;;;;10908915;32;20035;-70
2022/05/02 22:00:22;;;;;;;9.15;6.85;;;19.40;63.70;;;;;;10908863;32;20077;-70
2022/05/02 22:06:24;;;;;;;8.15;6.43;;;19.40;64.10;;;;;;10908768;32;20031;-70
2022/05/02 22:12:27;;;;;;;8.48;5.10;;;19.30;64.20;;;;;;10908334;32;20023;-70
2022/05/02 22:18:29;;;;;;;6.95;5.28;;;19.30;64.90;;;;;;10908236;32;20054;-70
2022/05/02 22:24:31;;;;;;;8.63;6.20;;;19.30;64.70;;;;;;10894458;32;20019;-70
2022/05/02 22:30:33;;;;;;;8.85;5.15;;;19.30;64.70;;;;;;10907714;32;20050;-70
2022/05/02 22:36:37;;;;;;;6.35;5.10;;;19.30;64.70;;;;;;10907531;32;20058;-70
2022/05/02 22:42:39;;;;;;;7.57;4.78;;;19.30;65.10;;;;;;10907374;32;20055;-71
2022/05/02 22:48:41;;;;;;;4.20;3.22;;;19.20;65.40;;;;;;10907155;32;20433;-70
2022/05/02 22:55:11;;;;;;;9.23;4.62;;;19.20;65.60;;;;;;10906770;32;20054;-71
2022/05/02 23:01:19;;;;;;;8.50;5.20;;;19.20;65.40;;;;;;10906638;32;20023;-71
2022/05/02 23:07:42;;;;;;;7.75;4.65;;;19.20;65.60;;;;;;10906376;32;20023;-71
2022/05/02 23:13:44;;;;;;;6.62;4.12;;;19.10;65.90;;;;;;10906223;32;20031;-71
2022/05/02 23:19:54;;;;;;;5.03;3.37;;;19.10;65.70;;;;;;10903139;32;20049;-71
2022/05/02 23:25:56;;;;;;;5.70;3.55;;;19.00;65.60;;;;;;10905855;32;20023;-71
2022/05/02 23:32:43;;;;;;;6.93;4.25;;;19.10;65.70;;;;;;10903987;32;20027;-71
2022/05/02 23:38:58;;;;;;;5.53;3.67;;;19.10;65.40;;;;;;10905120;32;20065;-71
2022/05/02 23:45:11;;;;;;;5.12;2.92;;;19.10;65.40;;;;;;10905359;32;20387;-71
2022/05/02 23:51:22;;;;;;;4.87;2.90;;;19.10;65.50;;;;;;10891714;32;20019;-71
2022/05/02 23:57:58;;;;;;;2.28;1.83;;;19.10;65.40;;;;;;10904800;32;20343;-70
